sensor_id;sensor_type;location;lat;lon;timestamp;P1;durP1;ratioP1;P2;durP2;ratioP2
64459;SDS011;50828;53.756;21.140;2023-01-15T00:00:09;24.90;;;8.60;;
64459;SDS011;50828;53.756;21.140;2023-01-15T00:05:18;20.80;;;8.80;;
64459;SDS011;50828;53.756;21.140;2023-01-15T00:10:26;23.00;;;8.70;;
64459;SDS011;50828;53.756;21.140;2023-01-15T00:15:35;21.80;;;8.30;;
64459;SDS011;50828;53.756;21.140;2023-01-15T00:20:44;19.90;;;8.00;;
64459;SDS011;50828;53.756;21.140;2023-01-15T00:25:54;23.70;;;8.90;;
64459;SDS011;50828;53.756;21.140;2023-01-15T00:31:20;26.10;;;9.30;;
64459;SDS011;50828;53.756;21.140;2023-01-15T00:36:28;27.00;;;9.40;;
64459;SDS011;50828;53.756;21.140;2023-01-15T00:41:37;25.40;;;9.10;;
64459;SDS011;50828;53.756;21.140;2023-01-15T00:46:45;21.70;;;9.70;;
64459;SDS011;50828;53.756;21.140;2023-01-15T00:51:53;21.50;;;9.50;;
64459;SDS011;50828;53.756;21.140;2023-01-15T00:57:02;24.30;;;9.00;;
64459;SDS011;50828;53.756;21.140;2023-01-15T01:02:11;21.10;;;9.20;;
64459;SDS011;50828;53.756;21.140;2023-01-15T01:07:20;19.30;;;8.50;;
64459;SDS011;50828;53.756;21.140;2023-01-15T01:12:28;23.80;;;9.60;;
64459;SDS011;50828;53.756;21.140;2023-01-15T01:17:37;26.50;;;9.40;;
64459;SDS011;50828;53.756;21.140;2023-01-15T01:22:46;20.80;;;9.20;;
64459;SDS011;50828;53.756;21.140;2023-01-15T01:27:55;19.60;;;8.20;;
64459;SDS011;50828;53.756;21.140;2023-01-15T01:33:03;22.50;;;8.50;;
64459;SDS011;50828;53.756;21.140;2023-01-15T01:38:12;26.40;;;8.60;;
64459;SDS011;50828;53.756;21.140;2023-01-15T01:43:22;21.10;;;8.40;;
64459;SDS011;50828;53.756;21.140;2023-01-15T01:48:31;19.40;;;8.20;;
64459;SDS011;50828;53.756;21.140;2023-01-15T01:53:40;24.80;;;8.60;;
64459;SDS011;50828;53.756;21.140;2023-01-15T01:58:50;21.40;;;9.00;;
64459;SDS011;50828;53.756;21.140;2023-01-15T02:04:00;20.00;;;8.40;;
64459;SDS011;50828;53.756;21.140;2023-01-15T02:09:11;22.00;;;8.70;;
64459;SDS011;50828;53.756;21.140;2023-01-15T02:14:20;18.60;;;8.00;;
64459;SDS011;50828;53.756;21.140;2023-01-15T02:24:50;17.80;;;6.90;;
64459;SDS011;50828;53.756;21.140;2023-01-15T02:30:14;18.60;;;6.60;;
64459;SDS011;50828;53.756;21.140;2023-01-15T02:35:33;22.20;;;6.90;;
64459;SDS011;50828;53.756;21.140;2023-01-15T02:40:46;18.50;;;7.90;;
64459;SDS011;50828;53.756;21.140;2023-01-15T02:45:57;23.00;;;7.80;;
64459;SDS011;50828;53.756;21.140;2023-01-15T02:51:10;21.30;;;7.70;;
64459;SDS011;50828;53.756;21.140;2023-01-15T02:56:22;16.60;;;6.40;;
64459;SDS011;50828;53.756;21.140;2023-01-15T03:01:35;16.50;;;6.80;;
64459;SDS011;50828;53.756;21.140;2023-01-15T03:06:50;15.10;;;7.00;;
64459;SDS011;50828;53.756;21.140;2023-01-15T03:12:03;13.00;;;6.50;;
64459;SDS011;50828;53.756;21.140;2023-01-15T03:17:19;20.30;;;6.60;;
64459;SDS011;50828;53.756;21.140;2023-01-15T03:22:34;17.60;;;7.20;;
64459;SDS011;50828;53.756;21.140;2023-01-15T03:27:47;18.10;;;7.40;;
64459;SDS011;50828;53.756;21.140;2023-01-15T03:32:59;18.10;;;7.30;;
64459;SDS011;50828;53.756;21.140;2023-01-15T03:38:09;20.70;;;7.60;;
64459;SDS011;50828;53.756;21.140;2023-01-15T03:43:18;20.90;;;7.80;;
64459;SDS011;50828;53.756;21.140;2023-01-15T03:48:53;19.60;;;7.50;;
64459;SDS011;50828;53.756;21.140;2023-01-15T03:54:08;20.00;;;8.10;;
64459;SDS011;50828;53.756;21.140;2023-01-15T03:59:25;18.70;;;7.00;;
64459;SDS011;50828;53.756;21.140;2023-01-15T04:04:40;14.40;;;7.00;;
64459;SDS011;50828;53.756;21.140;2023-01-15T04:09:51;18.70;;;7.60;;
64459;SDS011;50828;53.756;21.140;2023-01-15T04:15:00;16.90;;;6.80;;
64459;SDS011;50828;53.756;21.140;2023-01-15T04:20:10;21.60;;;7.50;;
64459;SDS011;50828;53.756;21.140;2023-01-15T04:25:20;20.10;;;7.40;;
64459;SDS011;50828;53.756;21.140;2023-01-15T04:30:29;19.80;;;7.50;;
64459;SDS011;50828;53.756;21.140;2023-01-15T04:35:37;16.70;;;6.60;;
64459;SDS011;50828;53.756;21.140;2023-01-15T04:40:46;18.50;;;7.70;;
64459;SDS011;50828;53.756;21.140;2023-01-15T04:46:13;22.70;;;8.00;;
64459;SDS011;50828;53.756;21.140;2023-01-15T04:51:21;15.00;;;6.30;;
64459;SDS011;50828;53.756;21.140;2023-01-15T04:56:29;20.70;;;7.80;;
64459;SDS011;50828;53.756;21.140;2023-01-15T05:01:42;17.80;;;6.80;;
64459;SDS011;50828;53.756;21.140;2023-01-15T05:07:07;16.90;;;6.70;;
64459;SDS011;50828;53.756;21.140;2023-01-15T05:12:16;19.50;;;6.20;;
64459;SDS011;50828;53.756;21.140;2023-01-15T05:17:25;15.20;;;6.50;;
64459;SDS011;50828;53.756;21.140;2023-01-15T05:22:34;15.20;;;6.30;;
64459;SDS011;50828;53.756;21.140;2023-01-15T05:27:42;15.10;;;6.30;;
64459;SDS011;50828;53.756;21.140;2023-01-15T05:32:51;13.10;;;6.00;;
64459;SDS011;50828;53.756;21.140;2023-01-15T05:37:59;16.10;;;6.40;;
64459;SDS011;50828;53.756;21.140;2023-01-15T05:43:10;15.50;;;6.10;;
64459;SDS011;50828;53.756;21.140;2023-01-15T05:48:19;15.90;;;5.80;;
64459;SDS011;50828;53.756;21.140;2023-01-15T05:53:28;12.30;;;5.60;;
64459;SDS011;50828;53.756;21.140;2023-01-15T05:58:38;13.40;;;5.80;;
64459;SDS011;50828;53.756;21.140;2023-01-15T06:03:46;13.70;;;5.90;;
64459;SDS011;50828;53.756;21.140;2023-01-15T06:08:57;13.80;;;5.80;;
64459;SDS011;50828;53.756;21.140;2023-01-15T06:14:05;13.20;;;4.90;;
64459;SDS011;50828;53.756;21.140;2023-01-15T06:19:15;10.50;;;4.90;;
64459;SDS011;50828;53.756;21.140;2023-01-15T06:24:23;12.20;;;5.00;;
64459;SDS011;50828;53.756;21.140;2023-01-15T06:29:32;12.00;;;4.90;;
64459;SDS011;50828;53.756;21.140;2023-01-15T06:34:40;12.50;;;5.10;;
64459;SDS011;50828;53.756;21.140;2023-01-15T06:39:48;10.60;;;4.90;;
64459;SDS011;50828;53.756;21.140;2023-01-15T06:44:56;12.80;;;5.30;;
64459;SDS011;50828;53.756;21.140;2023-01-15T06:50:23;14.80;;;5.20;;
64459;SDS011;50828;53.756;21.140;2023-01-15T06:55:32;12.20;;;5.30;;
64459;SDS011;50828;53.756;21.140;2023-01-15T07:00:40;14.10;;;5.60;;
64459;SDS011;50828;53.756;21.140;2023-01-15T07:05:57;14.10;;;5.30;;
64459;SDS011;50828;53.756;21.140;2023-01-15T07:11:10;16.20;;;5.50;;
64459;SDS011;50828;53.756;21.140;2023-01-15T07:16:19;12.00;;;5.20;;
64459;SDS011;50828;53.756;21.140;2023-01-15T07:21:35;11.60;;;5.10;;
64459;SDS011;50828;53.756;21.140;2023-01-15T07:26:43;13.10;;;5.30;;
64459;SDS011;50828;53.756;21.140;2023-01-15T07:31:52;13.00;;;5.40;;
64459;SDS011;50828;53.756;21.140;2023-01-15T07:37:01;12.80;;;4.80;;
64459;SDS011;50828;53.756;21.140;2023-01-15T07:42:10;11.00;;;4.80;;
64459;SDS011;50828;53.756;21.140;2023-01-15T07:47:37;11.40;;;4.40;;
64459;SDS011;50828;53.756;21.140;2023-01-15T07:53:04;13.40;;;5.00;;
64459;SDS011;50828;53.756;21.140;2023-01-15T07:58:13;13.30;;;5.80;;
64459;SDS011;50828;53.756;21.140;2023-01-15T08:03:21;9.70;;;4.80;;
64459;SDS011;50828;53.756;21.140;2023-01-15T08:08:30;14.00;;;5.10;;
64459;SDS011;50828;53.756;21.140;2023-01-15T08:13:38;12.60;;;5.40;;
64459;SDS011;50828;53.756;21.140;2023-01-15T08:19:05;15.20;;;5.80;;
64459;SDS011;50828;53.756;21.140;2023-01-15T08:24:14;13.00;;;5.00;;
64459;SDS011;50828;53.756;21.140;2023-01-15T08:29:22;13.20;;;4.90;;
64459;SDS011;50828;53.756;21.140;2023-01-15T08:34:30;12.80;;;5.40;;
64459;SDS011;50828;53.756;21.140;2023-01-15T08:39:39;10.70;;;4.80;;
64459;SDS011;50828;53.756;21.140;2023-01-15T08:44:48;11.70;;;4.80;;
64459;SDS011;50828;53.756;21.140;2023-01-15T08:49:56;11.30;;;5.00;;
64459;SDS011;50828;53.756;21.140;2023-01-15T08:55:05;9.90;;;4.40;;
64459;SDS011;50828;53.756;21.140;2023-01-15T09:00:14;12.80;;;4.90;;
64459;SDS011;50828;53.756;21.140;2023-01-15T09:05:25;12.90;;;5.50;;
64459;SDS011;50828;53.756;21.140;2023-01-15T09:10:34;13.00;;;5.00;;
64459;SDS011;50828;53.756;21.140;2023-01-15T09:15:42;9.00;;;4.80;;
64459;SDS011;50828;53.756;21.140;2023-01-15T09:20:50;10.50;;;4.70;;
64459;SDS011;50828;53.756;21.140;2023-01-15T09:25:59;11.70;;;4.40;;
64459;SDS011;50828;53.756;21.140;2023-01-15T09:31:10;12.60;;;5.00;;
64459;SDS011;50828;53.756;21.140;2023-01-15T09:36:19;10.40;;;4.50;;
64459;SDS011;50828;53.756;21.140;2023-01-15T09:41:33;14.20;;;5.20;;
64459;SDS011;50828;53.756;21.140;2023-01-15T09:47:13;10.90;;;4.70;;
64459;SDS011;50828;53.756;21.140;2023-01-15T09:52:28;12.80;;;4.90;;
64459;SDS011;50828;53.756;21.140;2023-01-15T09:57:51;10.20;;;4.90;;
64459;SDS011;50828;53.756;21.140;2023-01-15T10:03:03;8.30;;;4.20;;
64459;SDS011;50828;53.756;21.140;2023-01-15T10:08:18;11.00;;;4.30;;
64459;SDS011;50828;53.756;21.140;2023-01-15T10:13:33;9.70;;;4.00;;
64459;SDS011;50828;53.756;21.140;2023-01-15T10:18:46;8.50;;;3.70;;
64459;SDS011;50828;53.756;21.140;2023-01-15T10:23:58;8.80;;;3.70;;
64459;SDS011;50828;53.756;21.140;2023-01-15T10:29:15;7.30;;;4.30;;
64459;SDS011;50828;53.756;21.140;2023-01-15T10:34:37;9.00;;;3.80;;
64459;SDS011;50828;53.756;21.140;2023-01-15T10:40:11;9.70;;;3.80;;
64459;SDS011;50828;53.756;21.140;2023-01-15T10:45:50;6.70;;;3.60;;
64459;SDS011;50828;53.756;21.140;2023-01-15T10:51:02;9.00;;;3.70;;
64459;SDS011;50828;53.756;21.140;2023-01-15T10:56:21;8.10;;;3.60;;
64459;SDS011;50828;53.756;21.140;2023-01-15T11:01:37;8.00;;;3.90;;
64459;SDS011;50828;53.756;21.140;2023-01-15T11:06:46;7.30;;;4.10;;
64459;SDS011;50828;53.756;21.140;2023-01-15T11:11:56;6.80;;;3.80;;
64459;SDS011;50828;53.756;21.140;2023-01-15T11:17:41;8.50;;;4.30;;
64459;SDS011;50828;53.756;21.140;2023-01-15T11:23:10;8.70;;;3.90;;
64459;SDS011;50828;53.756;21.140;2023-01-15T11:28:30;7.50;;;4.40;;
64459;SDS011;50828;53.756;21.140;2023-01-15T11:33:53;6.10;;;3.80;;
64459;SDS011;50828;53.756;21.140;2023-01-15T11:39:04;6.90;;;3.70;;
64459;SDS011;50828;53.756;21.140;2023-01-15T11:44:26;6.80;;;4.00;;
64459;SDS011;50828;53.756;21.140;2023-01-15T11:49:54;6.50;;;4.00;;
64459;SDS011;50828;53.756;21.140;2023-01-15T11:55:23;7.60;;;3.90;;
64459;SDS011;50828;53.756;21.140;2023-01-15T12:00:34;6.70;;;4.00;;
64459;SDS011;50828;53.756;21.140;2023-01-15T12:05:52;7.10;;;3.60;;
64459;SDS011;50828;53.756;21.140;2023-01-15T12:11:04;7.40;;;4.10;;
64459;SDS011;50828;53.756;21.140;2023-01-15T12:16:31;7.50;;;3.90;;
64459;SDS011;50828;53.756;21.140;2023-01-15T12:32:51;6.50;;;3.40;;
64459;SDS011;50828;53.756;21.140;2023-01-15T12:38:07;7.00;;;3.90;;
64459;SDS011;50828;53.756;21.140;2023-01-15T12:43:24;6.80;;;4.00;;
64459;SDS011;50828;53.756;21.140;2023-01-15T12:48:53;5.20;;;3.20;;
64459;SDS011;50828;53.756;21.140;2023-01-15T12:54:12;5.70;;;3.40;;
64459;SDS011;50828;53.756;21.140;2023-01-15T12:59:28;5.80;;;3.80;;
64459;SDS011;50828;53.756;21.140;2023-01-15T13:04:43;8.90;;;4.00;;
64459;SDS011;50828;53.756;21.140;2023-01-15T13:09:57;7.90;;;3.90;;
64459;SDS011;50828;53.756;21.140;2023-01-15T13:15:13;6.60;;;3.70;;
64459;SDS011;50828;53.756;21.140;2023-01-15T13:20:27;8.80;;;4.20;;
64459;SDS011;50828;53.756;21.140;2023-01-15T13:25:43;7.60;;;3.90;;
64459;SDS011;50828;53.756;21.140;2023-01-15T13:31:04;12.70;;;5.30;;
64459;SDS011;50828;53.756;21.140;2023-01-15T13:36:19;8.00;;;4.10;;
64459;SDS011;50828;53.756;21.140;2023-01-15T13:41:33;9.00;;;4.60;;
64459;SDS011;50828;53.756;21.140;2023-01-15T13:47:02;9.70;;;4.70;;
64459;SDS011;50828;53.756;21.140;2023-01-15T13:52:19;10.00;;;4.70;;
64459;SDS011;50828;53.756;21.140;2023-01-15T13:57:35;8.50;;;4.50;;
64459;SDS011;50828;53.756;21.140;2023-01-15T14:02:49;7.40;;;4.70;;
64459;SDS011;50828;53.756;21.140;2023-01-15T14:07:59;10.30;;;5.60;;
64459;SDS011;50828;53.756;21.140;2023-01-15T14:13:24;8.80;;;4.60;;
64459;SDS011;50828;53.756;21.140;2023-01-15T14:18:56;12.10;;;5.80;;
64459;SDS011;50828;53.756;21.140;2023-01-15T14:24:16;12.00;;;5.50;;
64459;SDS011;50828;53.756;21.140;2023-01-15T14:29:52;9.20;;;5.40;;
64459;SDS011;50828;53.756;21.140;2023-01-15T14:35:20;11.70;;;6.00;;
64459;SDS011;50828;53.756;21.140;2023-01-15T14:40:30;11.80;;;6.00;;
64459;SDS011;50828;53.756;21.140;2023-01-15T14:45:40;11.80;;;6.90;;
64459;SDS011;50828;53.756;21.140;2023-01-15T14:50:53;11.10;;;5.70;;
64459;SDS011;50828;53.756;21.140;2023-01-15T14:56:17;13.00;;;6.90;;
64459;SDS011;50828;53.756;21.140;2023-01-15T15:01:34;12.50;;;6.50;;
64459;SDS011;50828;53.756;21.140;2023-01-15T15:06:49;11.80;;;6.70;;
64459;SDS011;50828;53.756;21.140;2023-01-15T15:12:01;13.30;;;7.00;;
64459;SDS011;50828;53.756;21.140;2023-01-15T15:17:28;5.00;;;2.80;;
64459;SDS011;50828;53.756;21.140;2023-01-15T15:22:42;3.50;;;1.80;;
64459;SDS011;50828;53.756;21.140;2023-01-15T15:28:02;1.60;;;1.00;;
64459;SDS011;50828;53.756;21.140;2023-01-15T15:33:14;2.30;;;1.00;;
64459;SDS011;50828;53.756;21.140;2023-01-15T15:38:26;2.30;;;0.80;;
64459;SDS011;50828;53.756;21.140;2023-01-15T15:43:38;2.30;;;0.90;;
64459;SDS011;50828;53.756;21.140;2023-01-15T15:49:10;1.30;;;0.70;;
64459;SDS011;50828;53.756;21.140;2023-01-15T15:54:19;1.20;;;0.80;;
64459;SDS011;50828;53.756;21.140;2023-01-15T15:59:33;1.60;;;0.60;;
64459;SDS011;50828;53.756;21.140;2023-01-15T16:04:46;1.10;;;0.50;;
64459;SDS011;50828;53.756;21.140;2023-01-15T16:09:57;1.40;;;0.50;;
64459;SDS011;50828;53.756;21.140;2023-01-15T16:20:20;1.90;;;0.60;;
64459;SDS011;50828;53.756;21.140;2023-01-15T16:25:31;2.40;;;0.50;;
64459;SDS011;50828;53.756;21.140;2023-01-15T16:30:42;1.10;;;0.50;;
64459;SDS011;50828;53.756;21.140;2023-01-15T16:35:56;1.00;;;0.50;;
64459;SDS011;50828;53.756;21.140;2023-01-15T16:41:12;1.30;;;0.50;;
64459;SDS011;50828;53.756;21.140;2023-01-15T16:46:26;1.00;;;0.50;;
64459;SDS011;50828;53.756;21.140;2023-01-15T16:51:37;1.70;;;0.60;;
64459;SDS011;50828;53.756;21.140;2023-01-15T16:56:51;2.20;;;0.50;;
64459;SDS011;50828;53.756;21.140;2023-01-15T17:02:04;2.50;;;0.60;;
64459;SDS011;50828;53.756;21.140;2023-01-15T17:07:19;3.40;;;0.60;;
64459;SDS011;50828;53.756;21.140;2023-01-15T17:12:33;2.70;;;0.30;;
64459;SDS011;50828;53.756;21.140;2023-01-15T17:17:44;2.00;;;1.10;;
64459;SDS011;50828;53.756;21.140;2023-01-15T17:22:54;2.50;;;0.80;;
64459;SDS011;50828;53.756;21.140;2023-01-15T17:28:03;1.00;;;0.50;;
64459;SDS011;50828;53.756;21.140;2023-01-15T17:33:17;2.60;;;0.70;;
64459;SDS011;50828;53.756;21.140;2023-01-15T17:38:27;1.30;;;0.40;;
64459;SDS011;50828;53.756;21.140;2023-01-15T17:43:35;2.50;;;0.70;;
64459;SDS011;50828;53.756;21.140;2023-01-15T17:48:43;1.50;;;0.50;;
64459;SDS011;50828;53.756;21.140;2023-01-15T17:53:52;1.40;;;0.40;;
64459;SDS011;50828;53.756;21.140;2023-01-15T17:59:00;3.10;;;0.90;;
64459;SDS011;50828;53.756;21.140;2023-01-15T18:04:33;3.40;;;0.90;;
64459;SDS011;50828;53.756;21.140;2023-01-15T18:10:05;1.70;;;0.80;;
64459;SDS011;50828;53.756;21.140;2023-01-15T18:20:23;4.30;;;1.50;;
64459;SDS011;50828;53.756;21.140;2023-01-15T18:25:32;3.90;;;1.50;;
64459;SDS011;50828;53.756;21.140;2023-01-15T18:30:40;6.90;;;2.10;;
64459;SDS011;50828;53.756;21.140;2023-01-15T18:35:49;4.80;;;1.70;;
64459;SDS011;50828;53.756;21.140;2023-01-15T18:41:08;5.30;;;2.10;;
64459;SDS011;50828;53.756;21.140;2023-01-15T18:46:40;6.00;;;1.70;;
64459;SDS011;50828;53.756;21.140;2023-01-15T18:51:48;6.10;;;2.00;;
64459;SDS011;50828;53.756;21.140;2023-01-15T18:57:12;5.50;;;2.00;;
64459;SDS011;50828;53.756;21.140;2023-01-15T19:02:21;6.90;;;1.70;;
64459;SDS011;50828;53.756;21.140;2023-01-15T19:07:30;4.80;;;1.80;;
64459;SDS011;50828;53.756;21.140;2023-01-15T19:12:39;4.70;;;1.30;;
64459;SDS011;50828;53.756;21.140;2023-01-15T19:17:48;4.80;;;1.40;;
64459;SDS011;50828;53.756;21.140;2023-01-15T19:23:15;6.40;;;1.50;;
64459;SDS011;50828;53.756;21.140;2023-01-15T19:28:25;2.80;;;0.90;;
64459;SDS011;50828;53.756;21.140;2023-01-15T19:33:37;6.20;;;1.30;;
64459;SDS011;50828;53.756;21.140;2023-01-15T19:38:45;6.30;;;1.50;;
64459;SDS011;50828;53.756;21.140;2023-01-15T19:43:54;6.80;;;1.60;;
64459;SDS011;50828;53.756;21.140;2023-01-15T19:49:20;5.30;;;1.60;;
64459;SDS011;50828;53.756;21.140;2023-01-15T19:54:49;5.30;;;1.70;;
64459;SDS011;50828;53.756;21.140;2023-01-15T20:00:01;6.80;;;2.10;;
64459;SDS011;50828;53.756;21.140;2023-01-15T20:05:11;5.90;;;2.00;;
64459;SDS011;50828;53.756;21.140;2023-01-15T20:10:21;4.00;;;1.80;;
64459;SDS011;50828;53.756;21.140;2023-01-15T20:15:31;6.20;;;1.80;;
64459;SDS011;50828;53.756;21.140;2023-01-15T20:20:41;6.10;;;2.50;;
64459;SDS011;50828;53.756;21.140;2023-01-15T20:25:49;4.30;;;2.40;;
64459;SDS011;50828;53.756;21.140;2023-01-15T20:30:58;6.20;;;2.70;;
64459;SDS011;50828;53.756;21.140;2023-01-15T20:36:08;7.30;;;3.10;;
64459;SDS011;50828;53.756;21.140;2023-01-15T20:41:17;6.90;;;3.00;;
64459;SDS011;50828;53.756;21.140;2023-01-15T20:46:43;8.80;;;3.30;;
64459;SDS011;50828;53.756;21.140;2023-01-15T20:51:54;6.30;;;3.00;;
64459;SDS011;50828;53.756;21.140;2023-01-15T20:57:06;6.70;;;3.00;;
64459;SDS011;50828;53.756;21.140;2023-01-15T21:02:14;6.00;;;3.10;;
64459;SDS011;50828;53.756;21.140;2023-01-15T21:07:24;11.60;;;3.80;;
64459;SDS011;50828;53.756;21.140;2023-01-15T21:12:32;7.80;;;3.40;;
64459;SDS011;50828;53.756;21.140;2023-01-15T21:17:40;8.60;;;3.20;;
64459;SDS011;50828;53.756;21.140;2023-01-15T21:22:49;7.70;;;3.30;;
64459;SDS011;50828;53.756;21.140;2023-01-15T21:27:58;7.80;;;3.90;;
64459;SDS011;50828;53.756;21.140;2023-01-15T21:33:06;8.30;;;3.60;;
64459;SDS011;50828;53.756;21.140;2023-01-15T21:38:15;6.00;;;3.30;;
64459;SDS011;50828;53.756;21.140;2023-01-15T21:43:23;8.80;;;4.00;;
64459;SDS011;50828;53.756;21.140;2023-01-15T21:48:51;5.40;;;3.20;;
64459;SDS011;50828;53.756;21.140;2023-01-15T21:53:59;10.10;;;4.10;;
64459;SDS011;50828;53.756;21.140;2023-01-15T21:59:10;6.90;;;3.50;;
64459;SDS011;50828;53.756;21.140;2023-01-15T22:04:19;9.40;;;3.90;;
64459;SDS011;50828;53.756;21.140;2023-01-15T22:09:29;7.50;;;3.50;;
64459;SDS011;50828;53.756;21.140;2023-01-15T22:14:38;5.00;;;2.70;;
64459;SDS011;50828;53.756;21.140;2023-01-15T22:19:46;7.00;;;3.50;;
64459;SDS011;50828;53.756;21.140;2023-01-15T22:24:55;6.20;;;3.60;;
64459;SDS011;50828;53.756;21.140;2023-01-15T22:30:04;7.60;;;3.60;;
64459;SDS011;50828;53.756;21.140;2023-01-15T22:35:16;7.40;;;3.60;;
64459;SDS011;50828;53.756;21.140;2023-01-15T22:40:24;6.90;;;3.50;;
64459;SDS011;50828;53.756;21.140;2023-01-15T22:45:32;7.60;;;3.70;;
64459;SDS011;50828;53.756;21.140;2023-01-15T22:50:40;4.90;;;2.90;;
64459;SDS011;50828;53.756;21.140;2023-01-15T22:55:55;8.10;;;3.70;;
64459;SDS011;50828;53.756;21.140;2023-01-15T23:01:04;8.40;;;3.60;;
64459;SDS011;50828;53.756;21.140;2023-01-15T23:06:14;9.70;;;3.70;;
64459;SDS011;50828;53.756;21.140;2023-01-15T23:11:24;6.60;;;3.50;;
64459;SDS011;50828;53.756;21.140;2023-01-15T23:16:33;8.30;;;4.30;;
64459;SDS011;50828;53.756;21.140;2023-01-15T23:21:42;7.80;;;3.50;;
64459;SDS011;50828;53.756;21.140;2023-01-15T23:26:50;7.50;;;3.60;;
64459;SDS011;50828;53.756;21.140;2023-01-15T23:31:58;10.80;;;3.20;;
64459;SDS011;50828;53.756;21.140;2023-01-15T23:37:07;9.50;;;3.30;;
64459;SDS011;50828;53.756;21.140;2023-01-15T23:42:15;6.10;;;2.50;;
64459;SDS011;50828;53.756;21.140;2023-01-15T23:47:43;8.40;;;3.40;;
64459;SDS011;50828;53.756;21.140;2023-01-15T23:52:52;7.60;;;3.80;;
64459;SDS011;50828;53.756;21.140;2023-01-15T23:58:00;7.10;;;3.40;;
